Terminal Aerodrome Forecast
Issued by NWS Corpus Christi, TX

Home | Current Version | Previous Version | Text Only | Print | Product List | Glossary On
Versions: 1 2 3 4 5 6 7 8 9 10 11 12
000
FTUS44 KCRP 281100
TAFVCT
TAF
KVCT 281125Z 2812/2912 21005KT P6SM SKC
     FM282000 17011KT P6SM FEW250
     FM290800 15005KT 2SM BR BKN007
     FM291000 VRB03KT 1SM BR OVC004=

USA.gov is the U.S. government's official web portal to all federal, state and local government web resources and services.